createdAt,value
2022-09-28T00:00:12.791Z,4.70
2022-09-28T00:01:25.272Z,4.83
2022-09-28T00:02:36.951Z,6.10
2022-09-28T00:03:49.598Z,4.27
2022-09-28T00:05:01.411Z,8.03
2022-09-28T00:06:13.848Z,3.53
2022-09-28T00:07:25.271Z,4.97
2022-09-28T00:08:36.916Z,4.43
2022-09-28T00:09:48.328Z,3.27
2022-09-28T00:10:59.799Z,3.73
2022-09-28T00:12:11.849Z,3.87
2022-09-28T00:13:23.669Z,3.37
2022-09-28T00:14:35.079Z,2.83
2022-09-28T00:15:46.520Z,4.90
2022-09-28T00:16:57.937Z,4.67
2022-09-28T00:18:09.448Z,18.60
2022-09-28T00:19:20.851Z,7.73
2022-09-28T00:20:32.620Z,4.90
2022-09-28T00:21:44.137Z,6.87
2022-09-28T00:22:55.560Z,7.20
2022-09-28T00:24:13.336Z,7.80
2022-09-28T00:25:25.064Z,8.10
2022-09-28T00:26:36.907Z,4.23
2022-09-28T00:27:51.502Z,9.03
2022-09-28T00:29:03.300Z,9.90
2022-09-28T00:30:16.464Z,8.67
2022-09-28T00:31:30.254Z,5.50
2022-09-28T00:32:41.749Z,5.63
2022-09-28T00:33:55.336Z,10.10
2022-09-28T00:35:06.997Z,8.33
2022-09-28T00:36:18.881Z,5.50
2022-09-28T00:37:32.829Z,5.43
2022-09-28T00:38:44.270Z,4.17
2022-09-28T00:39:55.795Z,6.07
2022-09-28T00:41:08.191Z,8.47
2022-09-28T00:42:20.928Z,5.47
2022-09-28T00:43:32.351Z,4.80
2022-09-28T00:44:43.770Z,4.67
2022-09-28T00:46:03.988Z,4.37
2022-09-28T00:47:15.680Z,5.63
2022-09-28T00:48:29.212Z,5.73
2022-09-28T00:49:45.363Z,7.87
2022-09-28T00:50:57.397Z,4.23
2022-09-28T00:52:11.114Z,7.20
2022-09-28T00:53:26.045Z,5.43
2022-09-28T00:54:37.638Z,5.63
2022-09-28T00:55:51.555Z,3.97
2022-09-28T00:57:04.024Z,6.53
2022-09-28T00:58:17.943Z,4.87
2022-09-28T00:59:29.993Z,6.23
2022-09-28T01:00:41.643Z,4.13
2022-09-28T01:01:53.237Z,4.97
2022-09-28T01:03:04.827Z,5.80
2022-09-28T01:04:16.472Z,8.07
2022-09-28T01:05:28.112Z,5.47
2022-09-28T01:06:39.772Z,8.27
2022-09-28T01:07:51.402Z,5.13
2022-09-28T01:09:04.666Z,6.23
2022-09-28T01:10:16.322Z,3.47
2022-09-28T01:11:28.001Z,4.87
2022-09-28T01:12:39.396Z,5.80
2022-09-28T01:13:51.826Z,6.13
2022-09-28T01:15:03.946Z,4.90
2022-09-28T01:16:18.461Z,7.73
2022-09-28T01:17:52.943Z,4.13
2022-09-28T01:19:07.982Z,4.23
2022-09-28T01:20:22.383Z,5.83
2022-09-28T01:21:50.109Z,7.33
2022-09-28T01:23:20.033Z,6.00
2022-09-28T01:24:41.073Z,4.80
2022-09-28T01:25:58.365Z,10.40
2022-09-28T01:27:13.066Z,6.00
2022-09-28T01:28:28.045Z,16.27
2022-09-28T01:29:44.589Z,6.63
2022-09-28T01:31:13.375Z,6.17
2022-09-28T01:32:43.627Z,12.70
2022-09-28T01:33:57.016Z,5.43
2022-09-28T01:35:11.571Z,6.60
2022-09-28T01:36:26.353Z,8.50
2022-09-28T01:37:41.903Z,10.53
2022-09-28T01:38:55.488Z,7.57
2022-09-28T01:40:08.303Z,6.80
2022-09-28T01:41:20.822Z,6.70
2022-09-28T01:42:34.545Z,10.20
2022-09-28T01:43:48.549Z,8.40
2022-09-28T01:45:03.852Z,8.13
2022-09-28T01:46:36.501Z,7.97
2022-09-28T01:47:49.942Z,12.00
2022-09-28T01:49:11.453Z,11.83
2022-09-28T01:50:24.042Z,11.53
2022-09-28T01:51:44.601Z,12.50
2022-09-28T01:53:25.327Z,9.30
2022-09-28T01:54:40.513Z,15.40
2022-09-28T01:55:55.457Z,8.73
2022-09-28T01:57:16.303Z,7.70
2022-09-28T01:58:27.710Z,19.23
2022-09-28T01:59:43.937Z,10.90
2022-09-28T02:01:01.182Z,10.23
2022-09-28T02:02:14.856Z,13.03
2022-09-28T02:03:32.115Z,15.20
2022-09-28T02:04:49.406Z,7.73
2022-09-28T02:06:04.202Z,16.27
2022-09-28T02:07:18.392Z,9.17
2022-09-28T02:08:33.516Z,11.80
2022-09-28T02:09:53.085Z,6.13
2022-09-28T02:11:14.696Z,8.43
2022-09-28T02:12:55.335Z,7.17
2022-09-28T02:14:11.709Z,13.37
2022-09-28T02:15:30.557Z,9.23
2022-09-28T02:16:43.019Z,11.83
2022-09-28T02:17:54.665Z,9.83
2022-09-28T02:19:07.179Z,8.03
2022-09-28T02:20:19.991Z,7.03
2022-09-28T02:21:33.568Z,11.80
2022-09-28T02:22:50.011Z,6.43
2022-09-28T02:24:09.426Z,10.10
2022-09-28T02:25:47.148Z,12.17
2022-09-28T02:27:00.534Z,6.37
2022-09-28T02:28:13.469Z,13.23
2022-09-28T02:29:25.054Z,12.93
2022-09-28T02:30:37.918Z,6.83
2022-09-28T02:31:50.487Z,8.73
2022-09-28T02:33:08.152Z,16.67
2022-09-28T02:34:19.862Z,9.00
2022-09-28T02:35:31.327Z,8.30
2022-09-28T02:36:44.972Z,9.27
2022-09-28T02:37:56.677Z,8.77
2022-09-28T02:39:13.994Z,7.40
2022-09-28T02:40:26.587Z,11.30
2022-09-28T02:41:56.483Z,6.97
2022-09-28T02:43:22.133Z,5.20
2022-09-28T02:44:33.990Z,8.00
2022-09-28T02:45:51.901Z,10.97
2022-09-28T02:47:06.033Z,10.63
2022-09-28T02:48:35.934Z,10.23
2022-09-28T02:49:54.881Z,19.93
2022-09-28T02:51:06.426Z,18.87
2022-09-28T02:52:36.271Z,16.07
2022-09-28T02:54:06.347Z,11.93
2022-09-28T02:55:26.948Z,9.47
2022-09-28T02:56:48.039Z,14.10
2022-09-28T02:58:02.895Z,20.13
2022-09-28T02:59:17.554Z,22.43
2022-09-28T03:00:31.716Z,48.90
2022-09-28T03:01:49.198Z,50.47
2022-09-28T03:03:09.878Z,49.27
2022-09-28T03:04:21.310Z,38.60
2022-09-28T03:05:41.554Z,26.43
2022-09-28T03:07:01.664Z,25.73
2022-09-28T03:08:25.105Z,24.40
2022-09-28T03:09:42.472Z,15.83
2022-09-28T03:11:05.529Z,14.77
2022-09-28T03:12:18.812Z,9.60
2022-09-28T03:13:30.957Z,9.23
2022-09-28T03:14:42.472Z,8.63
2022-09-28T03:16:05.627Z,9.50
2022-09-28T03:17:20.325Z,8.60
2022-09-28T03:18:32.310Z,10.80
2022-09-28T03:19:43.825Z,10.67
2022-09-28T03:20:55.477Z,12.70
2022-09-28T03:22:08.068Z,8.43
2022-09-28T03:23:24.864Z,8.70
2022-09-28T03:24:36.653Z,7.83
2022-09-28T03:25:48.099Z,5.53
2022-09-28T03:26:59.554Z,7.53
2022-09-28T03:28:10.969Z,6.53
2022-09-28T03:29:22.416Z,8.10
2022-09-28T03:30:33.930Z,6.90
2022-09-28T03:31:45.404Z,8.47
2022-09-28T03:32:58.339Z,6.43
2022-09-28T03:34:09.908Z,6.13
2022-09-28T03:35:21.351Z,10.23
2022-09-28T03:36:32.827Z,11.63
2022-09-28T03:37:44.285Z,8.10
2022-09-28T03:38:56.402Z,9.43
2022-09-28T03:40:07.984Z,12.57
2022-09-28T03:41:19.403Z,6.80
2022-09-28T03:42:30.927Z,19.10
2022-09-28T03:43:42.404Z,12.80
2022-09-28T03:44:53.824Z,12.40
2022-09-28T03:46:05.493Z,10.77
2022-09-28T03:47:18.051Z,7.10
2022-09-28T03:48:32.590Z,15.03
2022-09-28T03:49:45.663Z,10.40
2022-09-28T03:50:57.857Z,16.87
2022-09-28T03:52:09.468Z,11.93
2022-09-28T03:53:21.070Z,7.47
2022-09-28T03:54:32.520Z,7.63
2022-09-28T03:55:43.947Z,10.03
2022-09-28T03:56:55.430Z,15.40
2022-09-28T03:58:06.865Z,12.67
2022-09-28T03:59:18.707Z,9.37
2022-09-28T04:00:30.131Z,10.13
2022-09-28T04:01:41.825Z,7.27
2022-09-28T04:02:53.691Z,7.60
2022-09-28T04:04:05.461Z,6.10
2022-09-28T04:05:16.899Z,9.20
2022-09-28T04:06:28.492Z,8.83
2022-09-28T04:07:39.910Z,14.10
2022-09-28T04:08:51.420Z,8.30
2022-09-28T04:10:02.858Z,7.97
2022-09-28T04:11:14.315Z,8.17
2022-09-28T04:12:25.769Z,5.43
2022-09-28T04:13:37.384Z,5.83
2022-09-28T04:14:48.928Z,6.30
2022-09-28T04:16:01.513Z,6.13
2022-09-28T04:17:13.110Z,8.07
2022-09-28T04:18:24.877Z,8.10
2022-09-28T04:19:36.347Z,5.83
2022-09-28T04:20:48.325Z,5.23
2022-09-28T04:22:01.533Z,6.90
2022-09-28T04:23:12.947Z,6.73
2022-09-28T04:24:24.426Z,7.67
2022-09-28T04:25:35.874Z,5.57
2022-09-28T04:26:47.387Z,8.33
2022-09-28T04:28:17.376Z,5.87
2022-09-28T04:29:28.863Z,7.70
2022-09-28T04:30:40.296Z,6.13
2022-09-28T04:31:52.573Z,5.87
2022-09-28T04:33:04.028Z,6.13
2022-09-28T04:34:17.455Z,6.07
2022-09-28T04:35:29.118Z,8.10
2022-09-28T04:36:40.951Z,9.43
2022-09-28T04:37:52.433Z,9.83
2022-09-28T04:39:04.000Z,10.73
2022-09-28T04:40:15.774Z,9.63
2022-09-28T04:41:27.254Z,9.83
2022-09-28T04:42:38.680Z,8.63
2022-09-28T04:43:50.275Z,8.93
2022-09-28T04:45:02.252Z,5.17
2022-09-28T04:46:14.645Z,7.17
2022-09-28T04:47:26.130Z,7.83
2022-09-28T04:48:37.565Z,4.23
2022-09-28T04:49:49.015Z,6.30
2022-09-28T04:51:00.608Z,4.63
2022-09-28T04:52:17.875Z,7.00
2022-09-28T04:53:30.314Z,4.87
2022-09-28T04:54:41.786Z,7.47
2022-09-28T04:56:00.848Z,5.30
2022-09-28T04:57:12.296Z,5.73
2022-09-28T04:58:23.760Z,6.57
2022-09-28T04:59:37.608Z,5.13
2022-09-28T05:00:49.739Z,8.13
2022-09-28T05:02:01.252Z,6.23
2022-09-28T05:03:12.728Z,8.53
2022-09-28T05:04:26.206Z,8.03
2022-09-28T05:05:43.244Z,5.73
2022-09-28T05:06:54.704Z,6.57
2022-09-28T05:08:06.154Z,8.00
2022-09-28T05:09:17.662Z,7.37
2022-09-28T05:10:29.238Z,9.07
2022-09-28T05:11:40.840Z,13.77
2022-09-28T05:12:52.307Z,12.70
2022-09-28T05:14:03.742Z,9.27
2022-09-28T05:15:15.218Z,7.57
2022-09-28T05:16:26.960Z,8.90
2022-09-28T05:17:38.867Z,7.33
2022-09-28T05:18:54.237Z,7.67
2022-09-28T05:20:06.008Z,5.37
2022-09-28T05:21:20.123Z,8.77
2022-09-28T05:22:32.588Z,7.40
2022-09-28T05:23:47.635Z,9.70
2022-09-28T05:25:00.364Z,8.00
2022-09-28T05:26:11.964Z,7.53
2022-09-28T05:27:23.365Z,8.23
2022-09-28T05:28:34.859Z,9.97
2022-09-28T05:29:46.288Z,8.67
2022-09-28T05:31:01.836Z,7.63
2022-09-28T05:32:13.289Z,6.23
2022-09-28T05:33:24.821Z,9.23
2022-09-28T05:34:36.267Z,6.67
2022-09-28T05:35:52.493Z,7.80
2022-09-28T05:37:05.345Z,8.63
2022-09-28T05:38:16.805Z,9.87
2022-09-28T05:39:28.231Z,6.00
2022-09-28T05:40:39.740Z,7.23
2022-09-28T05:41:51.258Z,9.67
2022-09-28T05:43:02.739Z,6.20
2022-09-28T05:44:14.269Z,4.90
2022-09-28T05:45:25.768Z,6.10
2022-09-28T05:46:37.248Z,6.97
2022-09-28T05:47:48.745Z,7.83
2022-09-28T05:49:00.548Z,6.20
2022-09-28T05:50:12.427Z,5.73
2022-09-28T05:51:25.379Z,9.13
2022-09-28T05:52:36.902Z,7.40
2022-09-28T05:53:48.371Z,4.60
2022-09-28T05:54:59.847Z,5.53
2022-09-28T05:56:11.321Z,5.43
2022-09-28T05:57:22.811Z,6.37
2022-09-28T05:58:34.272Z,5.40
2022-09-28T05:59:46.001Z,5.77
2022-09-28T06:00:57.912Z,7.17
2022-09-28T06:02:10.080Z,6.13
2022-09-28T06:03:21.793Z,7.47
2022-09-28T06:04:33.541Z,9.20
2022-09-28T06:05:45.352Z,5.27
2022-09-28T06:06:57.328Z,6.07
2022-09-28T06:08:10.582Z,5.17
2022-09-28T06:09:25.926Z,6.60
2022-09-28T06:10:37.619Z,5.13
2022-09-28T06:11:49.114Z,5.07
2022-09-28T06:13:00.691Z,5.03
2022-09-28T06:14:13.881Z,4.50
2022-09-28T06:15:26.449Z,9.07
2022-09-28T06:16:41.692Z,5.23
2022-09-28T06:17:55.899Z,5.53
2022-09-28T06:19:11.074Z,8.70
2022-09-28T06:20:22.551Z,8.47
2022-09-28T06:21:34.005Z,4.57
2022-09-28T06:22:45.470Z,8.63
2022-09-28T06:23:56.901Z,6.00
2022-09-28T06:25:08.669Z,7.83
2022-09-28T06:26:20.119Z,9.37
2022-09-28T06:27:31.723Z,8.77
2022-09-28T06:28:43.205Z,6.67
2022-09-28T06:29:54.657Z,8.10
2022-09-28T06:31:06.202Z,6.63
2022-09-28T06:32:17.835Z,6.20
2022-09-28T06:33:30.573Z,10.03
2022-09-28T06:34:43.005Z,6.70
2022-09-28T06:35:54.436Z,6.30
2022-09-28T06:37:05.897Z,6.70
2022-09-28T06:38:17.337Z,8.27
2022-09-28T06:39:28.766Z,6.73
2022-09-28T06:40:40.302Z,8.53
2022-09-28T06:41:52.557Z,7.03
2022-09-28T06:43:10.041Z,5.07
2022-09-28T06:44:21.557Z,6.27
2022-09-28T06:45:33.012Z,8.50
2022-09-28T06:46:44.450Z,6.97
2022-09-28T06:47:57.486Z,4.73
2022-09-28T06:49:09.551Z,6.00
2022-09-28T06:50:21.048Z,5.73
2022-09-28T06:51:33.053Z,6.93
2022-09-28T06:52:44.546Z,4.60
2022-09-28T06:53:56.581Z,6.67
2022-09-28T06:55:08.188Z,9.03
2022-09-28T06:56:21.097Z,5.23
2022-09-28T06:57:32.621Z,5.50
2022-09-28T06:58:44.036Z,5.63
2022-09-28T06:59:55.483Z,8.37
2022-09-28T07:01:07.012Z,7.60
2022-09-28T07:02:20.216Z,5.90
2022-09-28T07:03:31.837Z,12.27
2022-09-28T07:04:43.420Z,7.77
2022-09-28T07:05:56.028Z,9.23
2022-09-28T07:07:08.654Z,5.50
2022-09-28T07:08:21.169Z,6.93
2022-09-28T07:09:35.053Z,7.67
2022-09-28T07:10:49.422Z,67.03
2022-09-28T07:12:00.965Z,282.47
2022-09-28T07:13:34.665Z,316.80
2022-09-28T07:14:48.146Z,17.53
2022-09-28T07:16:00.112Z,9.67
2022-09-28T07:17:14.147Z,11.17
2022-09-28T07:18:26.451Z,14.43
2022-09-28T07:19:37.883Z,20.10
2022-09-28T07:20:54.319Z,10.07
2022-09-28T07:22:06.168Z,6.93
2022-09-28T07:23:19.776Z,6.20
2022-09-28T07:24:31.585Z,4.53
2022-09-28T07:25:45.655Z,8.30
2022-09-28T07:26:57.176Z,7.73
2022-09-28T07:28:09.953Z,8.97
2022-09-28T07:29:21.437Z,5.97
2022-09-28T07:30:34.907Z,5.07
2022-09-28T07:31:46.484Z,9.37
2022-09-28T07:32:57.925Z,7.60
2022-09-28T07:34:09.424Z,14.13
2022-09-28T07:35:20.914Z,7.37
2022-09-28T07:36:35.172Z,11.10
2022-09-28T07:37:46.669Z,6.17
2022-09-28T07:38:58.097Z,6.23
2022-09-28T07:40:28.297Z,6.33
2022-09-28T07:41:39.950Z,8.90
2022-09-28T07:42:51.486Z,10.07
2022-09-28T07:44:06.299Z,8.53
2022-09-28T07:45:20.265Z,7.00
2022-09-28T07:46:32.762Z,11.67
2022-09-28T07:47:44.206Z,8.17
2022-09-28T07:48:55.622Z,7.67
2022-09-28T07:50:07.218Z,8.03
2022-09-28T07:51:21.271Z,6.97
2022-09-28T07:52:35.206Z,5.23
2022-09-28T07:53:48.092Z,6.53
2022-09-28T07:55:03.365Z,4.57
2022-09-28T07:56:18.317Z,5.73
2022-09-28T07:57:29.753Z,6.23
2022-09-28T07:58:41.173Z,10.33
2022-09-28T07:59:53.703Z,4.37
2022-09-28T08:01:07.013Z,5.30
2022-09-28T08:02:20.140Z,5.37
2022-09-28T08:03:31.795Z,5.67
2022-09-28T08:04:43.262Z,5.47
2022-09-28T08:05:58.480Z,7.20
2022-09-28T08:07:10.709Z,9.17
2022-09-28T08:08:22.179Z,5.50
2022-09-28T08:09:33.602Z,6.57
2022-09-28T08:10:47.196Z,5.87
2022-09-28T08:11:59.648Z,9.90
2022-09-28T08:13:11.112Z,5.60
2022-09-28T08:14:22.525Z,7.63
2022-09-28T08:15:37.006Z,5.70
2022-09-28T08:16:50.749Z,6.23
2022-09-28T08:18:05.047Z,7.00
2022-09-28T08:19:16.502Z,5.07
2022-09-28T08:20:49.433Z,5.57
2022-09-28T08:22:03.060Z,6.37
2022-09-28T08:23:14.549Z,5.67
2022-09-28T08:24:31.015Z,6.30
2022-09-28T08:25:46.948Z,4.50
2022-09-28T08:26:59.001Z,5.70
2022-09-28T08:28:10.522Z,5.63
2022-09-28T08:29:22.181Z,7.07
2022-09-28T08:30:33.926Z,10.90
2022-09-28T08:31:47.577Z,6.33
2022-09-28T08:32:59.169Z,5.93
2022-09-28T08:34:10.727Z,5.03
2022-09-28T08:35:22.269Z,5.97
2022-09-28T08:36:34.492Z,5.17
2022-09-28T08:37:55.578Z,6.27
2022-09-28T08:39:07.305Z,5.30
2022-09-28T08:40:20.217Z,4.40
2022-09-28T08:42:01.259Z,5.67
2022-09-28T08:43:20.582Z,4.77
2022-09-28T08:44:41.407Z,5.20
2022-09-28T08:45:53.222Z,6.20
2022-09-28T08:47:32.385Z,7.10
2022-09-28T08:49:20.572Z,4.93
2022-09-28T08:50:31.824Z,5.47
2022-09-28T08:51:51.419Z,4.83
2022-09-28T08:53:31.953Z,6.50
2022-09-28T08:54:49.257Z,6.27
2022-09-28T08:56:03.702Z,4.90
2022-09-28T08:57:17.963Z,6.70
2022-09-28T08:58:32.745Z,7.23
2022-09-28T08:59:44.145Z,4.67
2022-09-28T09:00:55.662Z,10.07
2022-09-28T09:02:12.862Z,4.93
2022-09-28T09:03:27.253Z,5.57
2022-09-28T09:04:38.738Z,7.27
2022-09-28T09:05:50.185Z,6.40
2022-09-28T09:07:04.417Z,5.90
2022-09-28T09:08:22.483Z,7.13
2022-09-28T09:09:48.020Z,7.87
2022-09-28T09:11:08.871Z,4.13
2022-09-28T09:12:34.062Z,4.03
2022-09-28T09:14:08.966Z,4.90
2022-09-28T09:15:48.362Z,4.20
2022-09-28T09:17:06.921Z,4.40
2022-09-28T09:18:36.294Z,12.03
2022-09-28T09:20:06.346Z,4.33
2022-09-28T09:21:27.031Z,3.77
2022-09-28T09:22:38.701Z,5.93
2022-09-28T09:23:57.815Z,4.47
2022-09-28T09:25:15.516Z,5.97
2022-09-28T09:26:40.115Z,4.77
2022-09-28T09:28:07.391Z,4.27
2022-09-28T09:29:21.640Z,4.60
2022-09-28T09:30:41.188Z,5.97
2022-09-28T09:31:59.662Z,4.73
2022-09-28T09:33:24.159Z,4.87
2022-09-28T09:34:42.577Z,6.83
2022-09-28T09:36:12.575Z,4.60
2022-09-28T09:37:34.710Z,5.37
2022-09-28T09:38:48.908Z,5.03
2022-09-28T09:40:06.399Z,5.83
2022-09-28T09:41:36.606Z,10.83
2022-09-28T09:43:16.123Z,5.37
2022-09-28T09:44:27.518Z,8.10
2022-09-28T09:45:41.879Z,4.53
2022-09-28T09:46:59.812Z,7.43
2022-09-28T09:48:14.404Z,7.37
2022-09-28T09:49:38.765Z,5.50
2022-09-28T09:50:55.471Z,7.00
2022-09-28T09:52:12.842Z,6.13
2022-09-28T09:53:30.366Z,7.77
2022-09-28T09:54:48.031Z,5.87
2022-09-28T09:56:11.013Z,4.60
2022-09-28T09:57:27.910Z,6.30
2022-09-28T09:58:44.739Z,7.30
2022-09-28T09:59:58.473Z,6.23
2022-09-28T10:01:14.139Z,4.73
2022-09-28T10:02:25.667Z,6.40
2022-09-28T10:03:39.867Z,4.37
2022-09-28T10:04:53.840Z,4.40
2022-09-28T10:06:17.549Z,4.50
2022-09-28T10:07:32.558Z,2.63
2022-09-28T10:08:49.015Z,4.70
2022-09-28T10:10:01.969Z,4.07
2022-09-28T10:11:26.129Z,2.57
2022-09-28T10:12:37.618Z,4.70
2022-09-28T10:13:49.385Z,3.87
2022-09-28T10:15:02.074Z,3.43
2022-09-28T10:16:13.693Z,2.47
2022-09-28T10:17:27.448Z,3.47
2022-09-28T10:18:39.103Z,2.97
2022-09-28T10:19:50.571Z,3.67
2022-09-28T10:21:02.051Z,3.20
2022-09-28T10:22:18.053Z,5.47
2022-09-28T10:23:30.749Z,5.37
2022-09-28T10:24:45.301Z,3.17
2022-09-28T10:26:02.372Z,3.50
2022-09-28T10:27:15.426Z,3.80
2022-09-28T10:28:32.910Z,4.13
2022-09-28T10:29:49.256Z,6.23
2022-09-28T10:31:01.800Z,2.10
2022-09-28T10:32:23.902Z,3.83
2022-09-28T10:33:35.383Z,5.30
2022-09-28T10:34:50.291Z,3.47
2022-09-28T10:36:06.828Z,6.50
2022-09-28T10:37:19.007Z,5.60
2022-09-28T10:38:30.948Z,5.70
2022-09-28T10:39:45.156Z,2.73
2022-09-28T10:41:00.701Z,2.80
2022-09-28T10:42:13.100Z,4.37
2022-09-28T10:43:25.988Z,1.63
2022-09-28T10:44:52.885Z,4.63
2022-09-28T10:46:08.440Z,2.23
2022-09-28T10:47:20.557Z,1.37
2022-09-28T10:48:39.611Z,1.73
2022-09-28T10:49:52.414Z,1.23
2022-09-28T10:51:05.804Z,0.80
2022-09-28T10:52:37.232Z,2.17
2022-09-28T10:54:02.116Z,1.80
2022-09-28T10:55:32.653Z,2.47
2022-09-28T10:56:44.570Z,6.23
2022-09-28T10:57:56.133Z,1.10
2022-09-28T10:59:24.280Z,2.90
2022-09-28T11:00:42.948Z,2.27
2022-09-28T11:01:56.002Z,3.10
2022-09-28T11:03:17.648Z,1.33
2022-09-28T11:04:30.129Z,4.57
2022-09-28T11:05:43.533Z,0.83
2022-09-28T11:08:22.251Z,1.37
2022-09-28T11:09:35.846Z,1.17
2022-09-28T11:10:47.304Z,3.77
2022-09-28T11:11:59.611Z,0.80
2022-09-28T11:13:11.149Z,1.03
2022-09-28T11:14:52.765Z,4.90
2022-09-28T11:16:04.338Z,1.93
2022-09-28T11:17:26.510Z,2.73
2022-09-28T11:18:37.961Z,0.50
2022-09-28T11:19:49.407Z,0.83
2022-09-28T11:21:11.429Z,7.53
2022-09-28T11:22:28.931Z,0.53
2022-09-28T11:23:42.188Z,1.87
2022-09-28T11:25:12.180Z,0.83
2022-09-28T11:26:24.069Z,0.47
2022-09-28T11:27:35.585Z,1.27
2022-09-28T11:28:51.036Z,3.10
2022-09-28T11:30:02.510Z,0.50
2022-09-28T11:31:14.188Z,0.70
2022-09-28T11:32:28.925Z,1.33
2022-09-28T11:33:42.336Z,0.30
2022-09-28T11:34:59.579Z,1.53
2022-09-28T11:36:14.550Z,4.57
2022-09-28T11:37:44.724Z,1.43
2022-09-28T11:38:56.127Z,1.30
2022-09-28T11:40:16.658Z,0.97
2022-09-28T11:41:58.519Z,3.93
2022-09-28T11:43:33.407Z,1.03
2022-09-28T11:44:56.578Z,1.07
2022-09-28T11:46:19.410Z,2.20
2022-09-28T11:47:30.868Z,1.27
2022-09-28T11:48:46.050Z,0.47
2022-09-28T11:50:02.053Z,1.13
2022-09-28T11:51:34.575Z,1.37
2022-09-28T11:52:54.434Z,0.43
2022-09-28T11:54:22.220Z,0.97
2022-09-28T11:55:36.679Z,0.80
2022-09-28T11:56:49.168Z,1.57
2022-09-28T11:58:03.705Z,1.67
2022-09-28T11:59:25.028Z,1.93
2022-09-28T12:00:38.351Z,2.23
2022-09-28T12:01:52.874Z,0.83
2022-09-28T12:03:09.308Z,0.67
2022-09-28T12:04:25.174Z,4.80
2022-09-28T12:05:39.252Z,2.63
2022-09-28T12:06:52.516Z,1.60
2022-09-28T12:08:12.209Z,1.20
2022-09-28T12:09:32.873Z,2.83
2022-09-28T12:11:02.626Z,1.20
2022-09-28T12:12:25.574Z,1.27
2022-09-28T12:13:42.386Z,3.20
2022-09-28T12:14:56.533Z,1.03
2022-09-28T12:16:53.173Z,0.83
2022-09-28T12:18:01.641Z,3.07
2022-09-28T12:19:13.097Z,1.43
2022-09-28T12:20:26.858Z,0.73
2022-09-28T12:21:43.990Z,1.27
2022-09-28T12:23:01.603Z,1.13
2022-09-28T12:24:17.064Z,0.93
2022-09-28T12:25:33.213Z,1.43
2022-09-28T12:26:52.083Z,2.87
2022-09-28T12:28:06.659Z,0.83
2022-09-28T12:29:20.630Z,0.90
2022-09-28T12:30:37.720Z,1.23
2022-09-28T12:32:07.756Z,0.33
2022-09-28T12:33:19.173Z,3.30
2022-09-28T12:34:30.687Z,2.90
2022-09-28T12:35:52.661Z,0.93
2022-09-28T12:37:04.081Z,1.73
2022-09-28T12:38:27.830Z,1.97
2022-09-28T12:39:57.097Z,0.73
2022-09-28T12:41:13.072Z,1.93
2022-09-28T12:42:44.270Z,2.00
2022-09-28T12:43:59.373Z,0.70
2022-09-28T12:45:13.823Z,0.87
2022-09-28T12:46:28.177Z,1.20
2022-09-28T12:47:48.550Z,3.50
2022-09-28T12:50:58.449Z,2.80
2022-09-28T12:52:19.288Z,1.23
2022-09-28T12:53:42.965Z,3.47
2022-09-28T12:54:57.563Z,1.23
2022-09-28T12:56:17.984Z,0.43
2022-09-28T12:57:39.446Z,3.33
2022-09-28T12:58:50.876Z,0.50
2022-09-28T13:00:08.496Z,2.87
2022-09-28T13:01:55.310Z,1.57
2022-09-28T13:03:15.530Z,0.90
2022-09-28T13:04:39.185Z,1.63
2022-09-28T13:05:56.454Z,0.70
2022-09-28T13:07:28.107Z,3.07
2022-09-28T13:08:58.202Z,0.60
2022-09-28T13:10:18.718Z,0.50
2022-09-28T13:11:34.224Z,4.03
2022-09-28T13:13:12.160Z,0.87
2022-09-28T13:14:41.740Z,2.93
2022-09-28T13:15:56.692Z,0.87
2022-09-28T13:17:26.809Z,1.70
2022-09-28T13:18:44.749Z,1.83
2022-09-28T13:19:59.155Z,3.53
2022-09-28T13:21:11.417Z,3.83
2022-09-28T13:22:25.883Z,1.53
2022-09-28T13:23:45.016Z,0.90
2022-09-28T13:24:59.537Z,0.57
2022-09-28T13:26:28.663Z,1.50
2022-09-28T13:27:42.383Z,0.97
2022-09-28T13:28:55.918Z,2.73
2022-09-28T13:30:08.014Z,2.77
2022-09-28T13:31:20.508Z,2.53
2022-09-28T13:32:33.086Z,2.43
2022-09-28T13:33:45.775Z,0.70
2022-09-28T13:34:57.636Z,1.27
2022-09-28T13:36:27.527Z,2.40
2022-09-28T13:37:38.954Z,2.13
2022-09-28T13:38:51.898Z,1.40
2022-09-28T13:40:06.331Z,1.63
2022-09-28T13:41:20.139Z,2.07
2022-09-28T13:42:35.157Z,2.33
2022-09-28T13:44:04.950Z,2.03
2022-09-28T13:45:16.421Z,2.40
2022-09-28T13:47:00.105Z,1.00
2022-09-28T13:48:16.209Z,2.00
2022-09-28T13:49:45.760Z,1.33
2022-09-28T13:51:12.410Z,0.60
2022-09-28T13:52:23.903Z,0.53
2022-09-28T13:53:44.499Z,1.97
2022-09-28T13:55:14.722Z,0.47
2022-09-28T13:56:44.808Z,1.60
2022-09-28T13:58:14.840Z,1.53
2022-09-28T13:59:27.882Z,1.50
2022-09-28T14:00:46.630Z,2.40
2022-09-28T14:02:07.200Z,2.07
2022-09-28T14:03:21.854Z,1.40
2022-09-28T14:05:05.706Z,3.53
2022-09-28T14:06:27.676Z,1.53
2022-09-28T14:07:39.151Z,1.50
2022-09-28T14:09:09.291Z,2.13
2022-09-28T14:10:21.031Z,0.70
2022-09-28T14:11:34.403Z,0.93
2022-09-28T14:12:47.359Z,1.23
2022-09-28T14:13:58.829Z,2.87
2022-09-28T14:15:28.669Z,4.93
2022-09-28T14:16:43.664Z,0.80
2022-09-28T14:17:58.102Z,1.30
2022-09-28T14:19:21.554Z,1.20
2022-09-28T14:20:34.914Z,2.83
2022-09-28T14:22:05.097Z,1.80
2022-09-28T14:23:21.012Z,0.90
2022-09-28T14:25:04.962Z,1.20
2022-09-28T14:26:41.861Z,1.27
2022-09-28T14:28:11.833Z,2.13
2022-09-28T14:29:29.390Z,0.63
2022-09-28T14:30:43.687Z,0.80
2022-09-28T14:32:20.315Z,3.20
2022-09-28T14:33:32.896Z,0.77
2022-09-28T14:34:54.843Z,4.83
2022-09-28T14:36:07.822Z,2.37
2022-09-28T14:37:40.381Z,0.90
2022-09-28T14:39:10.840Z,3.93
2022-09-28T14:40:48.710Z,1.87
2022-09-28T14:42:07.804Z,1.43
2022-09-28T14:43:25.452Z,1.13
2022-09-28T14:45:05.165Z,1.80
2022-09-28T14:46:18.908Z,2.43
2022-09-28T14:47:33.282Z,0.60
2022-09-28T14:48:48.899Z,0.50
2022-09-28T14:50:02.065Z,2.03
2022-09-28T14:51:33.019Z,2.13
2022-09-28T14:52:50.635Z,3.00
2022-09-28T14:54:08.061Z,1.73
2022-09-28T14:55:24.025Z,1.33
2022-09-28T14:56:59.855Z,0.93
2022-09-28T14:58:19.754Z,0.80
2022-09-28T14:59:36.206Z,1.53
2022-09-28T15:00:49.636Z,3.57
2022-09-28T15:02:06.355Z,1.63
2022-09-28T15:03:18.267Z,1.33
2022-09-28T15:04:31.138Z,2.20
2022-09-28T15:05:44.155Z,0.53
2022-09-28T15:06:55.829Z,2.37
2022-09-28T15:08:08.055Z,0.80
2022-09-28T15:09:33.163Z,2.67
2022-09-28T15:10:46.140Z,1.37
2022-09-28T15:12:15.118Z,1.47
2022-09-28T15:13:27.849Z,1.63
2022-09-28T15:14:54.346Z,2.33
2022-09-28T15:16:11.547Z,2.67
2022-09-28T15:17:24.734Z,6.80
2022-09-28T15:18:56.719Z,1.90
2022-09-28T15:20:26.152Z,3.27
2022-09-28T15:21:39.759Z,2.67
2022-09-28T15:22:58.371Z,2.27
2022-09-28T15:24:28.418Z,1.47
2022-09-28T15:25:39.873Z,1.10
2022-09-28T15:26:51.643Z,1.33
2022-09-28T15:28:13.893Z,0.73
2022-09-28T15:29:31.038Z,3.27
2022-09-28T15:30:43.478Z,1.50
2022-09-28T15:31:55.001Z,0.60
2022-09-28T15:33:41.483Z,1.27
2022-09-28T15:34:54.499Z,4.90
2022-09-28T15:36:06.774Z,2.10
2022-09-28T15:37:22.838Z,4.17
2022-09-28T15:38:34.863Z,1.03
2022-09-28T15:39:48.268Z,0.80
2022-09-28T15:41:04.651Z,1.00
2022-09-28T15:42:17.017Z,1.20
2022-09-28T15:43:33.277Z,4.03
2022-09-28T15:45:07.952Z,0.60
2022-09-28T15:46:21.129Z,2.40
2022-09-28T15:47:33.015Z,0.57
2022-09-28T15:48:52.116Z,2.27
2022-09-28T15:50:14.364Z,2.00
2022-09-28T15:51:26.429Z,4.20
2022-09-28T15:52:46.943Z,1.60
2022-09-28T15:54:01.391Z,2.20
2022-09-28T15:55:17.905Z,1.20
2022-09-28T15:56:29.870Z,3.00
2022-09-28T15:57:41.363Z,2.10
2022-09-28T15:59:18.397Z,1.03
2022-09-28T16:00:30.601Z,2.27
2022-09-28T16:01:45.507Z,4.37
2022-09-28T16:03:17.291Z,4.20
2022-09-28T16:04:34.607Z,1.80
2022-09-28T16:06:05.303Z,4.30
2022-09-28T16:07:18.489Z,3.70
2022-09-28T16:08:33.020Z,1.30
2022-09-28T16:10:04.716Z,2.80
2022-09-28T16:11:19.339Z,5.23
2022-09-28T16:12:40.235Z,3.67
2022-09-28T16:14:01.663Z,3.27
2022-09-28T16:15:20.433Z,8.23
2022-09-28T16:16:41.128Z,0.97
2022-09-28T16:18:04.159Z,0.50
2022-09-28T16:19:29.300Z,1.47
2022-09-28T16:20:41.305Z,0.73
2022-09-28T16:21:56.194Z,1.00
2022-09-28T16:23:16.760Z,1.10
2022-09-28T16:24:30.510Z,0.70
2022-09-28T16:25:48.544Z,1.10
2022-09-28T16:27:05.066Z,1.83
2022-09-28T16:28:25.335Z,1.57
2022-09-28T16:29:41.416Z,1.80
2022-09-28T16:31:00.112Z,1.03
2022-09-28T16:32:24.847Z,2.60
2022-09-28T16:33:41.247Z,3.10
2022-09-28T16:35:12.661Z,4.60
2022-09-28T16:36:27.472Z,1.10
2022-09-28T16:37:42.820Z,2.20
2022-09-28T16:38:55.249Z,4.37
2022-09-28T16:40:06.986Z,3.90
2022-09-28T16:41:22.935Z,2.27
2022-09-28T16:42:34.490Z,1.40
2022-09-28T16:43:46.368Z,1.30
2022-09-28T16:44:57.987Z,1.20
2022-09-28T16:46:13.347Z,2.13
2022-09-28T16:47:24.885Z,1.53
2022-09-28T16:48:39.581Z,2.47
2022-09-28T16:49:51.713Z,1.67
2022-09-28T16:51:03.376Z,2.20
2022-09-28T16:52:35.047Z,5.93
2022-09-28T16:54:05.515Z,1.83